createdAt,value
2024-03-22T00:00:43.143Z,8.25
2024-03-22T00:03:34.652Z,8.26
2024-03-22T00:06:06.678Z,8.27
2024-03-22T00:08:37.987Z,8.27
2024-03-22T00:11:09.539Z,8.28
2024-03-22T00:13:40.989Z,8.30
2024-03-22T00:16:12.337Z,8.31
2024-03-22T00:18:43.612Z,8.32
2024-03-22T00:21:15.438Z,8.31
2024-03-22T00:23:48.409Z,8.33
2024-03-22T00:26:19.991Z,8.35
2024-03-22T00:28:51.311Z,8.35
2024-03-22T00:31:22.778Z,8.35
2024-03-22T00:33:54.173Z,8.34
2024-03-22T00:36:25.688Z,8.34
2024-03-22T00:38:58.210Z,8.33
2024-03-22T00:41:29.595Z,8.34
2024-03-22T00:44:02.049Z,8.34
2024-03-22T00:46:34.318Z,8.34
2024-03-22T00:49:06.077Z,8.33
2024-03-22T00:51:38.087Z,8.34
2024-03-22T00:54:09.810Z,8.33
2024-03-22T00:56:41.086Z,8.33
2024-03-22T00:59:12.507Z,8.32
2024-03-22T01:01:43.760Z,8.31
2024-03-22T01:04:15.607Z,8.31
2024-03-22T01:06:47.080Z,8.31
2024-03-22T01:09:20.779Z,8.31
2024-03-22T01:11:52.193Z,8.31
2024-03-22T01:14:23.508Z,8.31
2024-03-22T01:16:56.434Z,8.33
2024-03-22T01:19:27.781Z,8.34
2024-03-22T01:21:59.402Z,8.36
2024-03-22T01:24:31.011Z,8.36
2024-03-22T01:27:02.533Z,8.36
2024-03-22T01:29:34.428Z,8.36
2024-03-22T01:32:06.636Z,8.36
2024-03-22T01:34:37.931Z,8.36
2024-03-22T01:37:10.663Z,8.37
2024-03-22T01:39:42.242Z,8.37
2024-03-22T01:42:13.476Z,8.38
2024-03-22T01:44:44.700Z,8.39
2024-03-22T01:47:16.578Z,8.40
2024-03-22T01:49:48.753Z,8.41
2024-03-22T01:52:20.310Z,8.42
2024-03-22T01:54:52.252Z,8.42
2024-03-22T01:57:23.833Z,8.43
2024-03-22T01:59:57.369Z,8.44
2024-03-22T02:02:29.074Z,8.44
2024-03-22T02:05:00.842Z,8.45
2024-03-22T02:07:33.371Z,8.43
2024-03-22T02:10:05.101Z,8.43
2024-03-22T02:12:36.740Z,8.43
2024-03-22T02:15:11.218Z,8.42
2024-03-22T02:17:42.910Z,8.44
2024-03-22T02:20:15.042Z,8.44
2024-03-22T02:22:46.836Z,8.44
2024-03-22T02:25:18.542Z,8.44
2024-03-22T02:27:51.531Z,8.42
2024-03-22T02:30:23.035Z,8.41
2024-03-22T02:32:54.697Z,8.40
2024-03-22T02:35:26.071Z,8.38
2024-03-22T02:37:59.491Z,8.37
2024-03-22T02:40:31.269Z,8.35
2024-03-22T02:43:03.162Z,8.35
2024-03-22T02:45:34.967Z,8.35
2024-03-22T02:48:07.729Z,8.34
2024-03-22T02:50:39.618Z,8.34
2024-03-22T02:53:12.333Z,8.34
2024-03-22T02:55:44.067Z,8.33
2024-03-22T02:58:15.698Z,8.34
2024-03-22T03:00:47.164Z,8.34
2024-03-22T03:03:18.618Z,8.33
2024-03-22T03:05:50.147Z,8.32
2024-03-22T03:08:22.685Z,8.30
2024-03-22T03:10:53.905Z,8.28
2024-03-22T03:13:25.234Z,8.27
2024-03-22T03:15:56.675Z,8.26
2024-03-22T03:18:28.407Z,8.25
2024-03-22T03:20:59.906Z,8.26
2024-03-22T03:23:31.521Z,8.25
2024-03-22T03:26:03.129Z,8.25
2024-03-22T03:28:37.102Z,8.24
2024-03-22T03:31:07.176Z,8.24
2024-03-22T03:33:38.493Z,8.22
2024-03-22T03:36:10.231Z,8.20
2024-03-22T03:38:42.697Z,8.15
2024-03-22T03:41:14.033Z,8.10
2024-03-22T03:43:45.585Z,8.07
2024-03-22T03:46:16.978Z,8.04
2024-03-22T03:48:48.282Z,8.00
2024-03-22T03:51:19.633Z,7.95
2024-03-22T03:53:51.195Z,7.89
2024-03-22T03:56:22.875Z,7.83
2024-03-22T03:58:55.021Z,7.77
2024-03-22T04:01:26.585Z,7.72
2024-03-22T04:03:58.128Z,7.65
2024-03-22T04:06:29.698Z,7.58
2024-03-22T04:09:02.022Z,7.52
2024-03-22T04:11:33.238Z,7.49
2024-03-22T04:14:04.733Z,7.45
2024-03-22T04:16:36.172Z,7.39
2024-03-22T04:19:07.764Z,7.33
2024-03-22T04:21:39.459Z,7.27
2024-03-22T04:24:11.394Z,7.22
2024-03-22T04:26:43.170Z,7.18
2024-03-22T04:29:20.173Z,7.11
2024-03-22T04:31:51.572Z,7.06
2024-03-22T04:34:25.890Z,7.03
2024-03-22T04:36:59.265Z,7.01
2024-03-22T04:39:31.913Z,7.00
2024-03-22T04:42:03.565Z,6.98
2024-03-22T04:44:37.241Z,6.95
2024-03-22T04:47:10.780Z,6.94
2024-03-22T04:49:42.198Z,6.93
2024-03-22T04:52:13.863Z,6.93
2024-03-22T04:54:45.226Z,6.93
2024-03-22T04:57:16.996Z,6.93
2024-03-22T04:59:48.355Z,6.92
2024-03-22T05:02:19.913Z,6.92
2024-03-22T05:04:51.817Z,6.91
2024-03-22T05:07:23.363Z,6.91
2024-03-22T05:09:55.274Z,6.90
2024-03-22T05:12:26.611Z,6.91
2024-03-22T05:14:58.970Z,6.89
2024-03-22T05:17:32.891Z,6.88
2024-03-22T05:20:06.334Z,6.87
2024-03-22T05:22:38.910Z,6.87
2024-03-22T05:25:11.367Z,6.87
2024-03-22T05:27:43.022Z,6.87
2024-03-22T05:30:16.137Z,6.87
2024-03-22T05:32:47.501Z,6.87
2024-03-22T05:35:19.915Z,6.88
2024-03-22T05:37:51.813Z,6.89
2024-03-22T05:40:24.527Z,6.90
2024-03-22T05:42:55.971Z,6.92
2024-03-22T05:45:27.421Z,6.92
2024-03-22T05:47:58.679Z,6.94
2024-03-22T05:50:30.652Z,6.95
2024-03-22T05:53:02.130Z,6.96
2024-03-22T05:55:33.760Z,6.96
2024-03-22T05:58:05.768Z,6.98
2024-03-22T06:00:37.269Z,7.00
2024-03-22T06:03:08.813Z,7.01
2024-03-22T06:05:40.808Z,7.04
2024-03-22T06:08:12.153Z,7.06
2024-03-22T06:10:45.082Z,7.08
2024-03-22T06:13:16.404Z,7.11
2024-03-22T06:15:48.898Z,7.15
2024-03-22T06:18:21.139Z,7.16
2024-03-22T06:20:56.462Z,7.18
2024-03-22T06:23:27.896Z,7.19
2024-03-22T06:26:00.068Z,7.19
2024-03-22T06:28:31.962Z,7.20
2024-03-22T06:31:04.458Z,7.21
2024-03-22T06:33:36.256Z,7.22
2024-03-22T06:36:09.124Z,7.23
2024-03-22T06:38:40.495Z,7.25
2024-03-22T06:41:11.923Z,7.28
2024-03-22T06:43:43.900Z,7.30
2024-03-22T06:46:15.398Z,7.32
2024-03-22T06:48:47.508Z,7.31
2024-03-22T06:51:18.953Z,7.30
2024-03-22T06:53:53.331Z,7.29
2024-03-22T06:56:25.063Z,7.30
2024-03-22T06:58:56.480Z,7.29
2024-03-22T07:01:28.413Z,7.29
2024-03-22T07:03:59.871Z,7.30
2024-03-22T07:06:31.771Z,7.31
2024-03-22T07:09:03.698Z,7.32
2024-03-22T07:11:35.286Z,7.33
2024-03-22T07:14:08.851Z,7.36
2024-03-22T07:16:40.592Z,7.38
2024-03-22T07:19:12.100Z,7.44
2024-03-22T07:21:43.593Z,7.45
2024-03-22T07:24:14.923Z,7.48
2024-03-22T07:26:47.704Z,7.52
2024-03-22T07:29:19.059Z,7.54
2024-03-22T07:31:50.317Z,7.57
2024-03-22T07:34:21.745Z,7.58
2024-03-22T07:36:57.219Z,7.59
2024-03-22T07:39:29.009Z,7.63
2024-03-22T07:42:00.959Z,7.62
2024-03-22T07:44:32.169Z,7.64
2024-03-22T07:47:03.592Z,7.69
2024-03-22T07:49:35.332Z,7.73
2024-03-22T07:52:07.913Z,7.75
2024-03-22T07:54:39.294Z,7.77
2024-03-22T07:57:12.065Z,7.80
2024-03-22T07:59:45.185Z,7.81
2024-03-22T08:02:16.871Z,7.85
2024-03-22T08:04:48.321Z,7.89
2024-03-22T08:07:20.061Z,7.94
2024-03-22T08:09:51.483Z,8.01
2024-03-22T08:12:22.975Z,8.06
2024-03-22T08:14:54.408Z,8.09
2024-03-22T08:17:25.745Z,8.08
2024-03-22T08:19:57.116Z,8.06
2024-03-22T08:22:28.438Z,8.01
2024-03-22T08:25:03.664Z,7.98
2024-03-22T08:27:46.567Z,7.96
2024-03-22T08:30:27.166Z,7.91
2024-03-22T08:32:58.977Z,7.91
2024-03-22T08:35:32.043Z,7.90
2024-03-22T08:38:04.487Z,7.90
2024-03-22T08:40:36.134Z,7.92
2024-03-22T08:43:18.389Z,7.93
2024-03-22T08:45:49.832Z,7.94
2024-03-22T08:48:23.118Z,7.97
2024-03-22T08:50:54.325Z,7.98
2024-03-22T08:53:27.110Z,7.99
2024-03-22T08:55:59.624Z,7.99
2024-03-22T08:58:30.896Z,8.01
2024-03-22T09:01:03.076Z,8.02
2024-03-22T09:03:34.706Z,8.05
2024-03-22T09:08:38.999Z,8.16
2024-03-22T09:11:10.656Z,8.22
2024-03-22T09:13:42.038Z,8.27
2024-03-22T09:16:13.579Z,8.33
2024-03-22T09:18:45.455Z,8.39
2024-03-22T09:21:17.488Z,8.40
2024-03-22T09:23:49.488Z,8.41
2024-03-22T09:26:21.009Z,8.42
2024-03-22T09:28:53.008Z,8.42
2024-03-22T09:31:24.396Z,8.42
2024-03-22T09:33:56.029Z,8.45
2024-03-22T09:36:28.307Z,8.50
2024-03-22T09:39:00.217Z,8.53
2024-03-22T09:41:34.928Z,8.58
2024-03-22T09:44:07.839Z,8.58
2024-03-22T09:46:39.805Z,8.56
2024-03-22T09:49:12.677Z,8.56
2024-03-22T09:51:45.587Z,8.60
2024-03-22T09:54:17.847Z,8.64
2024-03-22T09:56:51.539Z,8.67
2024-03-22T09:59:23.148Z,8.67
2024-03-22T10:01:55.363Z,8.65
2024-03-22T10:04:27.330Z,8.68
2024-03-22T10:06:58.922Z,8.73
2024-03-22T10:09:34.481Z,8.79
2024-03-22T10:12:06.331Z,8.81
2024-03-22T10:14:38.207Z,8.82
2024-03-22T10:17:09.541Z,8.85
2024-03-22T10:19:41.969Z,8.87
2024-03-22T10:22:13.875Z,8.89
2024-03-22T10:24:45.431Z,8.87
2024-03-22T10:27:17.057Z,8.87
2024-03-22T10:29:49.874Z,8.85
2024-03-22T10:32:21.853Z,8.81
2024-03-22T10:34:53.994Z,8.79
2024-03-22T10:37:26.123Z,8.72
2024-03-22T10:39:58.655Z,8.66
2024-03-22T10:42:30.340Z,8.61
2024-03-22T10:45:02.099Z,8.56
2024-03-22T10:47:34.630Z,8.52
2024-03-22T10:50:10.031Z,8.49
2024-03-22T10:52:47.990Z,8.52
2024-03-22T10:55:24.186Z,8.55
2024-03-22T10:57:55.781Z,8.55
2024-03-22T11:00:32.955Z,8.55
2024-03-22T11:03:05.932Z,8.54
2024-03-22T11:05:37.807Z,8.49
2024-03-22T11:08:11.647Z,8.47
2024-03-22T11:10:43.337Z,8.46
2024-03-22T11:13:14.988Z,8.48
2024-03-22T11:15:46.569Z,8.49
2024-03-22T11:18:18.188Z,8.46
2024-03-22T11:20:50.344Z,8.48
2024-03-22T11:23:22.195Z,8.56
2024-03-22T11:25:54.306Z,8.63
2024-03-22T11:28:26.671Z,8.70
2024-03-22T11:30:57.990Z,8.75
2024-03-22T11:33:29.553Z,8.81
2024-03-22T11:36:03.162Z,8.85
2024-03-22T11:38:35.745Z,8.85
2024-03-22T11:41:07.722Z,8.85
2024-03-22T11:43:39.385Z,8.85
2024-03-22T11:46:10.776Z,8.87
2024-03-22T11:48:45.233Z,8.87
2024-03-22T11:51:16.804Z,8.88
2024-03-22T11:53:53.990Z,8.90
2024-03-22T11:56:27.014Z,8.94
2024-03-22T11:59:04.090Z,8.97
2024-03-22T12:01:37.846Z,8.95
2024-03-22T12:04:09.259Z,8.94
2024-03-22T12:06:41.077Z,8.92
2024-03-22T12:09:13.694Z,8.90
2024-03-22T12:11:45.554Z,8.89
2024-03-22T12:14:17.621Z,8.91
2024-03-22T12:16:49.409Z,8.94
2024-03-22T12:19:21.038Z,8.97
2024-03-22T12:21:52.594Z,8.99
2024-03-22T12:24:24.136Z,9.00
2024-03-22T12:26:55.597Z,9.03
2024-03-22T12:29:27.076Z,9.05
2024-03-22T12:31:58.363Z,9.06
2024-03-22T12:34:30.532Z,9.07
2024-03-22T12:37:02.083Z,9.10
2024-03-22T12:39:33.727Z,9.12
2024-03-22T12:42:05.176Z,9.15
2024-03-22T12:44:36.793Z,9.21
2024-03-22T12:47:08.903Z,9.26
2024-03-22T12:49:40.410Z,9.29
2024-03-22T12:52:11.778Z,9.35
2024-03-22T12:54:43.226Z,9.37
2024-03-22T12:57:14.563Z,9.38
2024-03-22T12:59:47.669Z,9.40
2024-03-22T13:02:20.170Z,9.43
2024-03-22T13:04:52.691Z,9.46
2024-03-22T13:07:23.958Z,9.48
2024-03-22T13:09:56.249Z,9.51
2024-03-22T13:12:27.819Z,9.54
2024-03-22T13:15:12.150Z,9.57
2024-03-22T13:17:49.392Z,9.63
2024-03-22T13:20:21.279Z,9.68
2024-03-22T13:22:53.101Z,9.70
2024-03-22T13:25:24.524Z,9.72
2024-03-22T13:27:56.298Z,9.73
2024-03-22T13:30:28.384Z,9.72
2024-03-22T13:33:00.331Z,9.71
2024-03-22T13:35:34.520Z,9.74
2024-03-22T13:38:04.580Z,9.77
2024-03-22T13:40:36.211Z,9.78
2024-03-22T13:43:07.800Z,9.80
2024-03-22T13:45:45.263Z,9.85
2024-03-22T13:48:17.288Z,9.94
2024-03-22T13:50:51.776Z,10.00
2024-03-22T13:53:24.490Z,10.03
2024-03-22T13:55:55.997Z,10.04
2024-03-22T13:58:28.656Z,10.05
2024-03-22T14:01:00.156Z,10.08
2024-03-22T14:03:31.448Z,10.08
2024-03-22T14:06:04.901Z,10.10
2024-03-22T14:08:36.504Z,10.09
2024-03-22T14:11:08.070Z,10.09
2024-03-22T14:13:39.552Z,10.10
2024-03-22T14:16:11.033Z,10.12
2024-03-22T14:18:42.556Z,10.13
2024-03-22T14:21:19.989Z,10.14
2024-03-22T14:23:51.858Z,10.14
2024-03-22T14:26:25.451Z,10.12
2024-03-22T14:28:57.362Z,10.12
2024-03-22T14:31:29.535Z,10.11
2024-03-22T14:34:00.839Z,10.10
2024-03-22T14:36:32.258Z,10.12
2024-03-22T14:39:07.436Z,10.16
2024-03-22T14:41:40.025Z,10.19
2024-03-22T14:44:11.489Z,10.19
2024-03-22T14:46:43.375Z,10.20
2024-03-22T14:49:14.656Z,10.20
2024-03-22T14:51:46.371Z,10.20
2024-03-22T14:54:20.347Z,10.21
2024-03-22T14:56:52.427Z,10.21
2024-03-22T14:59:23.900Z,10.21
2024-03-22T15:01:56.070Z,10.22
2024-03-22T15:04:27.528Z,10.23
2024-03-22T15:06:59.262Z,10.25
2024-03-22T15:09:31.042Z,10.25
2024-03-22T15:12:02.558Z,10.24
2024-03-22T15:14:34.051Z,10.25
2024-03-22T15:17:05.693Z,10.23
2024-03-22T15:19:37.074Z,10.22
2024-03-22T15:22:10.005Z,10.19
2024-03-22T15:24:41.395Z,10.14
2024-03-22T15:27:16.521Z,10.10
2024-03-22T15:29:47.942Z,10.07
2024-03-22T15:32:21.120Z,10.05
2024-03-22T15:34:52.814Z,10.03
2024-03-22T15:37:25.705Z,10.00
2024-03-22T15:39:57.179Z,9.99
2024-03-22T15:42:29.021Z,10.00
2024-03-22T15:45:04.848Z,9.98
2024-03-22T15:47:36.269Z,9.94
2024-03-22T15:50:10.820Z,9.94
2024-03-22T15:52:42.216Z,9.93
2024-03-22T15:55:13.907Z,9.92
2024-03-22T15:57:45.453Z,9.92
2024-03-22T16:00:18.384Z,9.92
2024-03-22T16:02:49.887Z,9.91
2024-03-22T16:05:21.142Z,9.92
2024-03-22T16:07:52.626Z,9.93
2024-03-22T16:10:25.106Z,9.91
2024-03-22T16:12:57.095Z,9.91
2024-03-22T16:15:31.245Z,9.90
2024-03-22T16:18:02.681Z,9.90
2024-03-22T16:20:34.849Z,9.90
2024-03-22T16:23:08.271Z,9.90
2024-03-22T16:25:41.077Z,9.91
2024-03-22T16:28:13.131Z,9.92
2024-03-22T16:30:44.852Z,9.92
2024-03-22T16:33:16.752Z,9.91
2024-03-22T16:35:48.122Z,9.89
2024-03-22T16:38:19.512Z,9.89
2024-03-22T16:40:51.150Z,9.89
2024-03-22T16:43:24.863Z,9.89
2024-03-22T16:45:56.093Z,9.89
2024-03-22T16:48:27.466Z,9.88
2024-03-22T16:50:59.736Z,9.89
2024-03-22T16:53:31.987Z,9.87
2024-03-22T16:56:03.593Z,9.88
2024-03-22T16:58:37.358Z,9.88
2024-03-22T17:01:09.458Z,9.89
2024-03-22T17:03:43.820Z,9.88
2024-03-22T17:06:21.426Z,9.88
2024-03-22T17:08:55.828Z,9.88
2024-03-22T17:11:27.405Z,9.87
2024-03-22T17:13:59.064Z,9.87
2024-03-22T17:16:30.716Z,9.86
2024-03-22T17:19:02.157Z,9.85
2024-03-22T17:21:33.408Z,9.86
2024-03-22T17:24:05.242Z,9.86
2024-03-22T17:26:41.653Z,9.85
2024-03-22T17:29:13.071Z,9.84
2024-03-22T17:31:44.427Z,9.83
2024-03-22T17:34:15.933Z,9.82
2024-03-22T17:36:47.442Z,9.80
2024-03-22T17:39:18.786Z,9.79
2024-03-22T17:41:50.374Z,9.78
2024-03-22T17:44:21.775Z,9.77
2024-03-22T17:46:52.997Z,9.75
2024-03-22T17:49:24.613Z,9.75
2024-03-22T17:51:55.944Z,9.74
2024-03-22T17:54:27.589Z,9.73
2024-03-22T17:56:59.234Z,9.72
2024-03-22T17:59:30.853Z,9.71
2024-03-22T18:02:02.217Z,9.71
2024-03-22T18:04:33.591Z,9.70
2024-03-22T18:09:37.912Z,9.70
2024-03-22T18:12:12.253Z,9.71
2024-03-22T18:14:47.023Z,9.71
2024-03-22T18:17:18.302Z,9.71
2024-03-22T18:19:50.860Z,9.72
2024-03-22T18:22:22.096Z,9.72
2024-03-22T18:24:53.451Z,9.72
2024-03-22T18:27:25.072Z,9.72
2024-03-22T18:29:57.213Z,9.72
2024-03-22T18:32:28.531Z,9.71
2024-03-22T18:34:59.879Z,9.73
2024-03-22T18:37:33.788Z,9.75
2024-03-22T18:40:04.040Z,9.76
2024-03-22T18:42:35.407Z,9.75
2024-03-22T18:45:09.220Z,9.75
2024-03-22T18:47:40.406Z,9.76
2024-03-22T18:50:12.443Z,9.76
2024-03-22T18:52:43.877Z,9.77
2024-03-22T18:55:15.253Z,9.79
2024-03-22T18:57:46.475Z,9.79
2024-03-22T19:00:18.872Z,9.79
2024-03-22T19:02:50.099Z,9.80
2024-03-22T19:05:21.403Z,9.80
2024-03-22T19:07:52.608Z,9.81
2024-03-22T19:10:25.438Z,9.82
2024-03-22T19:12:56.681Z,9.83
2024-03-22T19:15:28.790Z,9.84
2024-03-22T19:17:59.966Z,9.85
2024-03-22T19:20:31.353Z,9.87
2024-03-22T19:23:04.886Z,9.89
2024-03-22T19:25:36.099Z,9.89
2024-03-22T19:28:10.530Z,9.89
2024-03-22T19:30:43.614Z,9.90
2024-03-22T19:33:16.872Z,9.91
2024-03-22T19:35:48.295Z,9.92
2024-03-22T19:38:20.008Z,9.93
2024-03-22T19:40:51.367Z,9.94
2024-03-22T19:43:23.116Z,9.94
2024-03-22T19:45:55.500Z,9.94
2024-03-22T19:48:26.711Z,9.95
2024-03-22T19:50:58.108Z,9.95
2024-03-22T19:53:30.534Z,9.94
2024-03-22T19:56:02.011Z,9.95
2024-03-22T19:58:33.275Z,9.96
2024-03-22T20:01:04.793Z,9.95
2024-03-22T20:03:36.001Z,9.94
2024-03-22T20:06:07.963Z,9.95
2024-03-22T20:08:39.261Z,9.95
2024-03-22T20:11:10.697Z,9.95
2024-03-22T20:13:41.919Z,9.96
2024-03-22T20:16:13.242Z,9.96
2024-03-22T20:18:44.460Z,9.98
2024-03-22T20:21:15.968Z,9.98
2024-03-22T20:23:47.208Z,9.99
2024-03-22T20:26:19.784Z,9.98
2024-03-22T20:28:52.511Z,9.99
2024-03-22T20:31:23.793Z,9.98
2024-03-22T20:33:55.222Z,9.98
2024-03-22T20:36:26.777Z,9.99
2024-03-22T20:38:58.116Z,9.99
2024-03-22T20:41:29.547Z,9.99
2024-03-22T20:44:00.828Z,10.00
2024-03-22T20:46:32.631Z,10.01
2024-03-22T20:49:03.876Z,10.01
2024-03-22T20:51:35.412Z,10.00
2024-03-22T20:54:08.156Z,10.00
2024-03-22T20:56:39.512Z,10.00
2024-03-22T20:59:10.917Z,10.00
2024-03-22T21:01:42.499Z,9.98
2024-03-22T21:04:14.200Z,9.98
2024-03-22T21:06:48.802Z,9.97
2024-03-22T21:09:23.327Z,9.96
2024-03-22T21:11:55.249Z,9.95
2024-03-22T21:14:26.900Z,9.94
2024-03-22T21:16:58.610Z,9.93
2024-03-22T21:19:32.530Z,9.92
2024-03-22T21:22:07.250Z,9.90
2024-03-22T21:24:38.494Z,9.90
2024-03-22T21:27:12.145Z,9.87
2024-03-22T21:29:45.569Z,9.88
2024-03-22T21:32:17.126Z,9.84
2024-03-22T21:34:48.315Z,9.84
2024-03-22T21:37:19.827Z,9.85
2024-03-22T21:39:53.782Z,9.84
2024-03-22T21:42:25.637Z,9.83
2024-03-22T21:44:56.809Z,9.82
2024-03-22T21:47:28.169Z,9.81
2024-03-22T21:49:59.348Z,9.80
2024-03-22T21:52:30.683Z,9.79
2024-03-22T21:55:01.964Z,9.78
2024-03-22T21:57:33.338Z,9.77
2024-03-22T22:00:06.138Z,9.76
2024-03-22T22:02:37.694Z,9.72
2024-03-22T22:05:09.041Z,9.71
2024-03-22T22:07:40.589Z,9.69
2024-03-22T22:10:11.924Z,9.68
2024-03-22T22:12:44.156Z,9.67
2024-03-22T22:15:15.493Z,9.65
2024-03-22T22:17:46.855Z,9.64
2024-03-22T22:20:19.512Z,9.63
2024-03-22T22:22:51.058Z,9.62
2024-03-22T22:25:22.338Z,9.62
2024-03-22T22:27:53.684Z,9.61
2024-03-22T22:30:25.275Z,9.59
2024-03-22T22:32:56.684Z,9.58
2024-03-22T22:35:27.924Z,9.56
2024-03-22T22:37:59.422Z,9.56
2024-03-22T22:40:30.771Z,9.55
2024-03-22T22:43:02.282Z,9.55
2024-03-22T22:45:33.520Z,9.54
2024-03-22T22:48:04.816Z,9.52
2024-03-22T22:50:36.040Z,9.51
2024-03-22T22:53:08.115Z,9.52
2024-03-22T22:55:40.023Z,9.51
2024-03-22T22:58:11.839Z,9.51
2024-03-22T23:00:43.126Z,9.53
2024-03-22T23:03:14.643Z,9.53
2024-03-22T23:05:45.944Z,9.54
2024-03-22T23:08:17.357Z,9.54
2024-03-22T23:10:48.769Z,9.55
2024-03-22T23:13:20.184Z,9.56
2024-03-22T23:15:51.463Z,9.57
2024-03-22T23:18:23.018Z,9.57
2024-03-22T23:20:54.256Z,9.58
2024-03-22T23:23:25.506Z,9.60
2024-03-22T23:25:56.711Z,9.61
2024-03-22T23:28:28.045Z,9.61
2024-03-22T23:30:59.651Z,9.61
2024-03-22T23:33:31.487Z,9.62
2024-03-22T23:36:02.619Z,9.60
2024-03-22T23:38:34.027Z,9.60
2024-03-22T23:41:05.186Z,9.59
2024-03-22T23:43:36.630Z,9.59
2024-03-22T23:46:08.043Z,9.58
2024-03-22T23:48:41.638Z,9.56
2024-03-22T23:51:12.774Z,9.54
2024-03-22T23:53:44.237Z,9.52
2024-03-22T23:56:15.358Z,9.51
2024-03-22T23:58:46.720Z,9.49
